EDT,Max TemperatureF,Mean TemperatureF,Min TemperatureF,Max Dew PointF,MeanDew PointF,Min DewpointF,Max Humidity, Mean Humidity, Min Humidity, Max Sea Level PressureIn, Mean Sea Level PressureIn, Min Sea Level PressureIn, Max VisibilityMiles, Mean VisibilityMiles, Min VisibilityMiles, Max Wind SpeedMPH, Mean Wind SpeedMPH, Max Gust SpeedMPH,PrecipitationIn, CloudCover, Events, WindDirDegrees
2014-4-1,50,38,26,32,27,23,85,64,42,30.14,30.07,29.99,10,10,2,13,4,21,0.00,0,,205
2014-4-2,56,47,37,34,29,21,70,54,37,30.10,30.05,29.99,10,10,10,17,6,26,0.00,0,,266
2014-4-3,49,38,26,26,24,22,85,60,34,30.15,30.12,30.07,10,10,9,13,4,18,0.00,0,,312
2014-4-4,49,42,35,33,26,21,76,58,39,30.10,29.95,29.76,10,9,5,25,10,35,0.19,7,Rain,124
2014-4-5,44,39,34,36,30,21,92,72,52,30.01,29.80,29.69,10,10,9,25,10,38,0.02,8,Rain,274
2014-4-6,52,41,29,25,21,19,78,54,30,30.21,30.13,30.02,10,10,10,15,6,22,0.00,2,,269
2014-4-7,58,42,26,39,25,18,81,52,23,30.19,30.05,29.70,10,10,10,36,9,54,T,3,Rain,135
2014-4-8,63,51,39,48,41,32,83,66,48,29.63,29.45,29.29,10,10,10,38,12,49,0.03,8,Rain,234
2014-4-9,52,41,29,35,26,6,92,56,19,29.98,29.71,29.60,10,10,8,21,7,32,0.00,4,,305
2014-4-10,64,44,24,30,22,16,74,48,22,30.12,30.00,29.90,10,10,10,28,10,35,0.00,1,,190
2014-4-11,64,50,36,43,36,25,93,58,23,30.05,29.97,29.86,10,8,0,16,5,25,0.06,6,Fog-Rain,260
2014-4-12,65,49,32,40,33,25,100,62,24,30.19,30.11,30.01,10,6,0,18,5,27,0.00,4,Fog,256
2014-4-13,75,60,45,50,42,28,71,55,38,30.18,30.03,29.89,10,10,6,24,9,34,0.08,3,Rain-Thunderstorm,138
2014-4-14,76,69,61,53,51,49,67,53,38,29.91,29.82,29.74,10,10,10,29,14,41,0.00,1,,180
2014-4-15,66,47,28,57,43,25,92,78,63,29.89,29.68,29.47,10,6,0,31,16,48,0.61,7,Fog-Rain-Snow,221
2014-4-16,38,30,22,24,18,11,81,59,37,30.60,30.25,29.90,10,10,2,18,7,24,0.00,4,Snow,314
2014-4-17,50,36,22,22,16,12,81,53,24,30.76,30.67,30.61,10,10,10,15,6,22,0.00,0,,112
2014-4-18,51,38,25,24,17,10,69,48,27,30.60,30.40,30.20,10,10,10,15,6,17,0.00,0,,160
2014-4-19,57,44,31,34,28,23,82,56,30,30.42,30.28,30.17,10,10,10,17,7,25,0.00,3,,319
2014-4-20,63,44,25,25,19,11,75,45,15,30.51,30.40,30.27,10,10,10,12,3,14,0.00,0,,133
2014-4-21,73,53,32,29,21,11,69,40,11,30.25,30.03,29.80,10,10,10,12,4,17,0.00,0,,209
2014-4-22,71,58,44,52,39,22,93,59,24,29.78,29.57,29.49,10,9,2,16,5,23,0.07,5,Rain,222
2014-4-23,50,46,41,49,37,24,89,69,49,29.77,29.58,29.50,10,9,2,22,9,33,0.02,8,Rain,294
2014-4-24,54,44,33,21,17,13,48,35,21,30.00,29.87,29.76,10,10,10,23,11,33,0.00,0,,323
2014-4-25,63,45,26,35,20,14,69,43,16,30.04,29.92,29.76,10,10,6,14,2,18,0.11,2,Rain,150
2014-4-26,55,49,42,41,39,35,89,74,59,29.84,29.76,29.71,10,8,2,13,4,23,0.58,8,Rain,242
2014-4-27,48,44,40,38,36,32,92,76,60,30.13,29.97,29.84,10,10,4,18,7,26,0.06,8,Rain,324
2014-4-28,60,47,33,38,34,32,92,66,40,30.15,30.09,30.04,10,10,10,18,5,25,0.00,4,,335
2014-4-29,53,47,40,38,34,29,71,57,42,30.44,30.30,30.16,10,10,10,24,13,36,0.06,7,Rain,113
2014-4-30,49,44,39,41,36,32,83,74,65,30.45,30.29,30.01,10,8,2,29,12,42,0.57,8,Rain,118